sensor_id;sensor_type;location;lat;lon;timestamp;P1;durP1;ratioP1;P2;durP2;ratioP2
62724;SDS011;49026;52.600;4.694;2023-04-01T00:00:05;43.67;;;7.93;;
62724;SDS011;49026;52.600;4.694;2023-04-01T00:02:31;30.23;;;7.32;;
62724;SDS011;49026;52.600;4.694;2023-04-01T00:04:58;32.95;;;7.82;;
62724;SDS011;49026;52.600;4.694;2023-04-01T00:07:24;26.15;;;7.25;;
62724;SDS011;49026;52.600;4.694;2023-04-01T00:09:49;28.60;;;7.75;;
62724;SDS011;49026;52.600;4.694;2023-04-01T00:12:15;34.10;;;7.22;;
62724;SDS011;49026;52.600;4.694;2023-04-01T00:14:43;31.08;;;7.90;;
62724;SDS011;49026;52.600;4.694;2023-04-01T00:17:08;36.00;;;9.07;;
62724;SDS011;49026;52.600;4.694;2023-04-01T00:19:33;28.42;;;8.65;;
62724;SDS011;49026;52.600;4.694;2023-04-01T00:22:06;39.35;;;9.02;;
62724;SDS011;49026;52.600;4.694;2023-04-01T00:24:32;36.70;;;7.13;;
62724;SDS011;49026;52.600;4.694;2023-04-01T00:26:57;41.97;;;8.18;;
62724;SDS011;49026;52.600;4.694;2023-04-01T00:29:23;40.80;;;8.82;;
62724;SDS011;49026;52.600;4.694;2023-04-01T00:34:18;51.28;;;8.85;;
62724;SDS011;49026;52.600;4.694;2023-04-01T00:36:43;50.15;;;8.45;;
62724;SDS011;49026;52.600;4.694;2023-04-01T00:39:09;52.92;;;10.07;;
62724;SDS011;49026;52.600;4.694;2023-04-01T00:41:35;34.13;;;8.48;;
62724;SDS011;49026;52.600;4.694;2023-04-01T00:46:55;35.03;;;7.88;;
62724;SDS011;49026;52.600;4.694;2023-04-01T00:49:22;40.80;;;7.93;;
62724;SDS011;49026;52.600;4.694;2023-04-01T00:51:52;61.90;;;9.80;;
62724;SDS011;49026;52.600;4.694;2023-04-01T00:54:22;53.45;;;9.57;;
62724;SDS011;49026;52.600;4.694;2023-04-01T00:56:55;37.50;;;10.18;;
62724;SDS011;49026;52.600;4.694;2023-04-01T00:59:26;56.38;;;11.00;;
62724;SDS011;49026;52.600;4.694;2023-04-01T01:01:57;49.43;;;10.63;;
62724;SDS011;49026;52.600;4.694;2023-04-01T01:09:25;48.10;;;11.02;;
62724;SDS011;49026;52.600;4.694;2023-04-01T01:14:39;47.95;;;11.25;;
62724;SDS011;49026;52.600;4.694;2023-04-01T01:17:28;42.83;;;10.95;;
62724;SDS011;49026;52.600;4.694;2023-04-01T01:34:31;29.80;;;8.60;;
62724;SDS011;49026;52.600;4.694;2023-04-01T01:37:06;21.53;;;7.10;;
62724;SDS011;49026;52.600;4.694;2023-04-01T01:39:36;24.00;;;7.57;;
62724;SDS011;49026;52.600;4.694;2023-04-01T01:42:04;17.15;;;6.47;;
62724;SDS011;49026;52.600;4.694;2023-04-01T01:44:35;25.35;;;7.82;;
62724;SDS011;49026;52.600;4.694;2023-04-01T01:47:03;18.75;;;6.43;;
62724;SDS011;49026;52.600;4.694;2023-04-01T01:49:30;19.20;;;7.05;;
62724;SDS011;49026;52.600;4.694;2023-04-01T01:51:58;22.52;;;7.13;;
62724;SDS011;49026;52.600;4.694;2023-04-01T01:54:25;20.17;;;7.30;;
62724;SDS011;49026;52.600;4.694;2023-04-01T01:56:54;22.55;;;6.68;;
62724;SDS011;49026;52.600;4.694;2023-04-01T01:59:24;22.08;;;7.20;;
62724;SDS011;49026;52.600;4.694;2023-04-01T02:01:52;25.65;;;8.05;;
62724;SDS011;49026;52.600;4.694;2023-04-01T02:04:21;24.38;;;7.75;;
62724;SDS011;49026;52.600;4.694;2023-04-01T02:06:53;24.15;;;7.63;;
62724;SDS011;49026;52.600;4.694;2023-04-01T02:09:25;24.20;;;7.95;;
62724;SDS011;49026;52.600;4.694;2023-04-01T02:12:01;28.77;;;8.95;;
62724;SDS011;49026;52.600;4.694;2023-04-01T02:17:15;27.63;;;8.70;;
62724;SDS011;49026;52.600;4.694;2023-04-01T02:22:25;33.72;;;9.93;;
62724;SDS011;49026;52.600;4.694;2023-04-01T02:24:53;34.58;;;11.23;;
62724;SDS011;49026;52.600;4.694;2023-04-01T02:27:24;32.70;;;11.02;;
62724;SDS011;49026;52.600;4.694;2023-04-01T02:29:52;33.00;;;11.38;;
62724;SDS011;49026;52.600;4.694;2023-04-01T02:32:18;39.72;;;12.10;;
62724;SDS011;49026;52.600;4.694;2023-04-01T02:34:45;41.72;;;12.40;;
62724;SDS011;49026;52.600;4.694;2023-04-01T02:37:12;35.22;;;10.73;;
62724;SDS011;49026;52.600;4.694;2023-04-01T02:39:41;37.15;;;12.18;;
62724;SDS011;49026;52.600;4.694;2023-04-01T02:42:10;35.22;;;12.43;;
62724;SDS011;49026;52.600;4.694;2023-04-01T02:44:35;36.00;;;11.50;;
62724;SDS011;49026;52.600;4.694;2023-04-01T02:47:01;32.88;;;10.93;;
62724;SDS011;49026;52.600;4.694;2023-04-01T02:49:29;34.63;;;10.13;;
62724;SDS011;49026;52.600;4.694;2023-04-01T02:51:54;41.92;;;11.68;;
62724;SDS011;49026;52.600;4.694;2023-04-01T02:54:19;31.45;;;11.57;;
62724;SDS011;49026;52.600;4.694;2023-04-01T02:56:45;31.98;;;10.52;;
62724;SDS011;49026;52.600;4.694;2023-04-01T02:59:11;35.03;;;10.75;;
62724;SDS011;49026;52.600;4.694;2023-04-01T03:01:36;37.22;;;11.18;;
62724;SDS011;49026;52.600;4.694;2023-04-01T03:04:02;38.13;;;11.00;;
62724;SDS011;49026;52.600;4.694;2023-04-01T03:06:28;33.75;;;10.90;;
62724;SDS011;49026;52.600;4.694;2023-04-01T03:08:55;33.85;;;9.93;;
62724;SDS011;49026;52.600;4.694;2023-04-01T03:11:21;48.78;;;10.63;;
62724;SDS011;49026;52.600;4.694;2023-04-01T03:13:46;27.27;;;8.65;;
62724;SDS011;49026;52.600;4.694;2023-04-01T03:16:12;35.53;;;9.88;;
62724;SDS011;49026;52.600;4.694;2023-04-01T03:18:38;37.55;;;11.43;;
62724;SDS011;49026;52.600;4.694;2023-04-01T03:21:13;41.30;;;11.07;;
62724;SDS011;49026;52.600;4.694;2023-04-01T03:23:43;52.13;;;12.18;;
62724;SDS011;49026;52.600;4.694;2023-04-01T03:26:09;51.30;;;12.05;;
62724;SDS011;49026;52.600;4.694;2023-04-01T03:28:34;42.53;;;13.02;;
62724;SDS011;49026;52.600;4.694;2023-04-01T03:31:00;52.30;;;12.68;;
62724;SDS011;49026;52.600;4.694;2023-04-01T03:33:25;48.83;;;12.20;;
62724;SDS011;49026;52.600;4.694;2023-04-01T03:35:53;41.63;;;11.80;;
62724;SDS011;49026;52.600;4.694;2023-04-01T03:38:20;39.03;;;11.50;;
62724;SDS011;49026;52.600;4.694;2023-04-01T03:40:46;47.80;;;12.48;;
62724;SDS011;49026;52.600;4.694;2023-04-01T03:43:13;52.70;;;11.68;;
62724;SDS011;49026;52.600;4.694;2023-04-01T03:45:48;38.58;;;11.32;;
62724;SDS011;49026;52.600;4.694;2023-04-01T03:48:15;38.13;;;10.32;;
62724;SDS011;49026;52.600;4.694;2023-04-01T03:50:41;46.13;;;11.65;;
62724;SDS011;49026;52.600;4.694;2023-04-01T03:53:07;40.47;;;9.48;;
62724;SDS011;49026;52.600;4.694;2023-04-01T03:55:35;46.83;;;10.52;;
62724;SDS011;49026;52.600;4.694;2023-04-01T03:58:01;42.70;;;9.63;;
62724;SDS011;49026;52.600;4.694;2023-04-01T04:00:27;39.13;;;9.32;;
62724;SDS011;49026;52.600;4.694;2023-04-01T04:02:53;42.28;;;10.75;;
62724;SDS011;49026;52.600;4.694;2023-04-01T04:05:21;35.15;;;9.27;;
62724;SDS011;49026;52.600;4.694;2023-04-01T04:07:47;41.92;;;10.55;;
62724;SDS011;49026;52.600;4.694;2023-04-01T04:10:12;51.95;;;11.80;;
62724;SDS011;49026;52.600;4.694;2023-04-01T04:12:40;44.38;;;11.15;;
62724;SDS011;49026;52.600;4.694;2023-04-01T04:15:05;39.97;;;10.30;;
62724;SDS011;49026;52.600;4.694;2023-04-01T04:17:31;46.63;;;9.70;;
62724;SDS011;49026;52.600;4.694;2023-04-01T04:19:57;41.70;;;11.25;;
62724;SDS011;49026;52.600;4.694;2023-04-01T04:22:22;47.67;;;10.93;;
62724;SDS011;49026;52.600;4.694;2023-04-01T04:24:48;60.83;;;12.82;;
62724;SDS011;49026;52.600;4.694;2023-04-01T04:27:13;53.58;;;13.27;;
62724;SDS011;49026;52.600;4.694;2023-04-01T04:29:43;59.20;;;13.55;;
62724;SDS011;49026;52.600;4.694;2023-04-01T04:32:08;47.17;;;10.85;;
62724;SDS011;49026;52.600;4.694;2023-04-01T04:34:34;62.97;;;11.73;;
62724;SDS011;49026;52.600;4.694;2023-04-01T04:36:59;41.88;;;10.55;;
62724;SDS011;49026;52.600;4.694;2023-04-01T04:39:24;56.50;;;11.98;;
62724;SDS011;49026;52.600;4.694;2023-04-01T04:41:50;71.45;;;13.63;;
62724;SDS011;49026;52.600;4.694;2023-04-01T04:44:15;67.28;;;13.52;;
62724;SDS011;49026;52.600;4.694;2023-04-01T04:46:40;73.00;;;15.23;;
62724;SDS011;49026;52.600;4.694;2023-04-01T04:49:06;77.00;;;14.60;;
62724;SDS011;49026;52.600;4.694;2023-04-01T04:51:32;61.83;;;12.68;;
62724;SDS011;49026;52.600;4.694;2023-04-01T04:54:00;77.47;;;15.57;;
62724;SDS011;49026;52.600;4.694;2023-04-01T04:56:28;65.68;;;13.85;;
62724;SDS011;49026;52.600;4.694;2023-04-01T04:58:54;56.88;;;14.10;;
62724;SDS011;49026;52.600;4.694;2023-04-01T05:01:19;61.20;;;12.82;;
62724;SDS011;49026;52.600;4.694;2023-04-01T05:03:47;65.30;;;13.30;;
62724;SDS011;49026;52.600;4.694;2023-04-01T05:06:13;63.13;;;11.93;;
62724;SDS011;49026;52.600;4.694;2023-04-01T05:08:40;65.50;;;13.05;;
62724;SDS011;49026;52.600;4.694;2023-04-01T05:11:09;62.72;;;12.75;;
62724;SDS011;49026;52.600;4.694;2023-04-01T05:13:38;59.33;;;11.33;;
62724;SDS011;49026;52.600;4.694;2023-04-01T05:16:03;75.22;;;16.90;;
62724;SDS011;49026;52.600;4.694;2023-04-01T05:18:32;82.03;;;14.38;;
62724;SDS011;49026;52.600;4.694;2023-04-01T05:21:00;72.07;;;11.32;;
62724;SDS011;49026;52.600;4.694;2023-04-01T05:23:25;84.03;;;14.18;;
62724;SDS011;49026;52.600;4.694;2023-04-01T05:25:52;65.35;;;12.63;;
62724;SDS011;49026;52.600;4.694;2023-04-01T05:28:18;63.92;;;11.93;;
62724;SDS011;49026;52.600;4.694;2023-04-01T05:30:46;70.68;;;12.45;;
62724;SDS011;49026;52.600;4.694;2023-04-01T05:33:11;80.43;;;13.35;;
62724;SDS011;49026;52.600;4.694;2023-04-01T05:35:38;76.13;;;14.00;;
62724;SDS011;49026;52.600;4.694;2023-04-01T05:38:03;74.43;;;12.90;;
62724;SDS011;49026;52.600;4.694;2023-04-01T05:40:29;89.47;;;13.98;;
62724;SDS011;49026;52.600;4.694;2023-04-01T05:42:55;71.68;;;13.30;;
62724;SDS011;49026;52.600;4.694;2023-04-01T05:45:21;76.55;;;13.38;;
62724;SDS011;49026;52.600;4.694;2023-04-01T05:47:47;80.30;;;13.23;;
62724;SDS011;49026;52.600;4.694;2023-04-01T05:50:12;70.70;;;12.80;;
62724;SDS011;49026;52.600;4.694;2023-04-01T05:52:37;94.13;;;13.70;;
62724;SDS011;49026;52.600;4.694;2023-04-01T05:55:03;109.68;;;15.68;;
62724;SDS011;49026;52.600;4.694;2023-04-01T05:57:29;84.28;;;14.55;;
62724;SDS011;49026;52.600;4.694;2023-04-01T06:00:01;112.70;;;14.85;;
62724;SDS011;49026;52.600;4.694;2023-04-01T06:02:27;132.45;;;15.98;;
62724;SDS011;49026;52.600;4.694;2023-04-01T06:04:54;90.45;;;15.00;;
62724;SDS011;49026;52.600;4.694;2023-04-01T06:07:28;71.88;;;13.13;;
62724;SDS011;49026;52.600;4.694;2023-04-01T06:09:54;111.15;;;15.68;;
62724;SDS011;49026;52.600;4.694;2023-04-01T06:15:01;116.43;;;14.75;;
62724;SDS011;49026;52.600;4.694;2023-04-01T06:23:33;115.93;;;15.98;;
62724;SDS011;49026;52.600;4.694;2023-04-01T06:45:48;96.35;;;14.52;;
62724;SDS011;49026;52.600;4.694;2023-04-01T06:51:25;156.02;;;18.23;;
62724;SDS011;49026;52.600;4.694;2023-04-01T06:56:23;126.47;;;15.63;;
62724;SDS011;49026;52.600;4.694;2023-04-01T06:59:00;92.80;;;15.25;;
62724;SDS011;49026;52.600;4.694;2023-04-01T07:01:33;134.07;;;15.80;;
62724;SDS011;49026;52.600;4.694;2023-04-01T07:04:09;94.38;;;15.00;;
62724;SDS011;49026;52.600;4.694;2023-04-01T07:06:52;110.70;;;15.23;;
62724;SDS011;49026;52.600;4.694;2023-04-01T07:09:23;75.70;;;13.13;;
62724;SDS011;49026;52.600;4.694;2023-04-01T07:11:53;77.45;;;12.43;;
62724;SDS011;49026;52.600;4.694;2023-04-01T07:14:32;57.13;;;11.82;;
62724;SDS011;49026;52.600;4.694;2023-04-01T07:19:32;71.57;;;12.02;;
62724;SDS011;49026;52.600;4.694;2023-04-01T07:25:20;95.90;;;14.55;;
62724;SDS011;49026;52.600;4.694;2023-04-01T07:27:50;97.82;;;14.07;;
62724;SDS011;49026;52.600;4.694;2023-04-01T07:30:22;100.82;;;15.27;;
62724;SDS011;49026;52.600;4.694;2023-04-01T07:33:04;89.30;;;14.10;;
62724;SDS011;49026;52.600;4.694;2023-04-01T07:35:38;80.95;;;12.98;;
62724;SDS011;49026;52.600;4.694;2023-04-01T07:49:29;70.25;;;13.00;;
62724;SDS011;49026;52.600;4.694;2023-04-01T07:52:04;71.97;;;12.10;;
62724;SDS011;49026;52.600;4.694;2023-04-01T07:57:30;62.90;;;10.98;;
62724;SDS011;49026;52.600;4.694;2023-04-01T08:00:10;104.30;;;12.73;;
62724;SDS011;49026;52.600;4.694;2023-04-01T08:09:06;38.70;;;7.38;;
62724;SDS011;49026;52.600;4.694;2023-04-01T08:16:17;24.70;;;5.32;;
62724;SDS011;49026;52.600;4.694;2023-04-01T08:18:54;25.80;;;5.90;;
62724;SDS011;49026;52.600;4.694;2023-04-01T08:21:35;33.00;;;6.03;;
62724;SDS011;49026;52.600;4.694;2023-04-01T08:24:27;36.60;;;7.22;;
62724;SDS011;49026;52.600;4.694;2023-04-01T08:26:59;28.20;;;7.60;;
62724;SDS011;49026;52.600;4.694;2023-04-01T08:29:52;29.00;;;6.38;;
62724;SDS011;49026;52.600;4.694;2023-04-01T08:32:25;38.58;;;8.60;;
62724;SDS011;49026;52.600;4.694;2023-04-01T08:37:41;44.22;;;9.73;;
62724;SDS011;49026;52.600;4.694;2023-04-01T08:48:27;37.50;;;8.73;;
62724;SDS011;49026;52.600;4.694;2023-04-01T08:57:06;38.53;;;8.95;;
62724;SDS011;49026;52.600;4.694;2023-04-01T09:04:46;32.65;;;8.07;;
62724;SDS011;49026;52.600;4.694;2023-04-01T09:19:08;29.15;;;8.70;;
62724;SDS011;49026;52.600;4.694;2023-04-01T09:22:25;24.98;;;7.22;;
62724;SDS011;49026;52.600;4.694;2023-04-01T09:35:47;42.33;;;9.77;;
62724;SDS011;49026;52.600;4.694;2023-04-01T09:44:03;47.85;;;11.32;;
62724;SDS011;49026;52.600;4.694;2023-04-01T10:00:26;51.17;;;12.80;;
62724;SDS011;49026;52.600;4.694;2023-04-01T10:03:16;53.65;;;11.77;;
62724;SDS011;49026;52.600;4.694;2023-04-01T10:13:42;43.22;;;11.10;;
62724;SDS011;49026;52.600;4.694;2023-04-01T10:22:11;38.70;;;10.63;;
62724;SDS011;49026;52.600;4.694;2023-04-01T10:25:14;35.03;;;10.35;;
62724;SDS011;49026;52.600;4.694;2023-04-01T10:36:31;33.53;;;8.88;;
62724;SDS011;49026;52.600;4.694;2023-04-01T10:50:53;23.15;;;6.88;;
62724;SDS011;49026;52.600;4.694;2023-04-01T10:56:39;20.88;;;7.30;;
62724;SDS011;49026;52.600;4.694;2023-04-01T10:59:12;13.98;;;6.40;;
62724;SDS011;49026;52.600;4.694;2023-04-01T11:10:47;26.17;;;9.30;;
62724;SDS011;49026;52.600;4.694;2023-04-01T11:13:33;28.67;;;8.57;;
62724;SDS011;49026;52.600;4.694;2023-04-01T11:33:39;16.15;;;6.05;;
62724;SDS011;49026;52.600;4.694;2023-04-01T11:44:25;16.40;;;5.72;;
62724;SDS011;49026;52.600;4.694;2023-04-01T11:57:46;13.23;;;5.30;;
62724;SDS011;49026;52.600;4.694;2023-04-01T12:00:32;12.35;;;4.90;;
62724;SDS011;49026;52.600;4.694;2023-04-01T12:03:10;21.38;;;5.55;;
62724;SDS011;49026;52.600;4.694;2023-04-01T12:09:14;17.10;;;6.10;;
62724;SDS011;49026;52.600;4.694;2023-04-01T12:12:11;11.82;;;5.28;;
62724;SDS011;49026;52.600;4.694;2023-04-01T12:32:15;15.20;;;4.63;;
62724;SDS011;49026;52.600;4.694;2023-04-01T12:35:05;10.65;;;3.30;;
62724;SDS011;49026;52.600;4.694;2023-04-01T12:37:49;10.65;;;3.38;;
62724;SDS011;49026;52.600;4.694;2023-04-01T12:46:19;15.95;;;4.72;;
62724;SDS011;49026;52.600;4.694;2023-04-01T12:54:37;15.57;;;4.28;;
62724;SDS011;49026;52.600;4.694;2023-04-01T13:08:13;10.98;;;4.32;;
62724;SDS011;49026;52.600;4.694;2023-04-01T13:14:19;12.68;;;4.65;;
62724;SDS011;49026;52.600;4.694;2023-04-01T13:16:55;8.13;;;4.05;;
62724;SDS011;49026;52.600;4.694;2023-04-01T13:22:23;8.18;;;4.65;;
62724;SDS011;49026;52.600;4.694;2023-04-01T13:27:56;8.25;;;4.07;;
62724;SDS011;49026;52.600;4.694;2023-04-01T13:30:37;8.13;;;4.95;;
62724;SDS011;49026;52.600;4.694;2023-04-01T13:41:30;5.72;;;2.75;;
62724;SDS011;49026;52.600;4.694;2023-04-01T13:44:19;6.63;;;4.03;;
62724;SDS011;49026;52.600;4.694;2023-04-01T13:52:44;12.52;;;4.60;;
62724;SDS011;49026;52.600;4.694;2023-04-01T13:58:11;10.63;;;3.83;;
62724;SDS011;49026;52.600;4.694;2023-04-01T14:00:51;8.40;;;4.65;;
62724;SDS011;49026;52.600;4.694;2023-04-01T14:06:13;4.95;;;3.20;;
62724;SDS011;49026;52.600;4.694;2023-04-01T14:08:46;8.57;;;4.38;;
62724;SDS011;49026;52.600;4.694;2023-04-01T14:11:45;5.55;;;3.15;;
62724;SDS011;49026;52.600;4.694;2023-04-01T14:23:12;10.18;;;3.58;;
62724;SDS011;49026;52.600;4.694;2023-04-01T14:34:19;6.95;;;2.72;;
62724;SDS011;49026;52.600;4.694;2023-04-01T14:45:46;7.95;;;3.65;;
62724;SDS011;49026;52.600;4.694;2023-04-01T14:48:34;8.07;;;3.35;;
62724;SDS011;49026;52.600;4.694;2023-04-01T14:51:08;7.22;;;2.63;;
62724;SDS011;49026;52.600;4.694;2023-04-01T14:53:42;5.72;;;2.60;;
62724;SDS011;49026;52.600;4.694;2023-04-01T14:56:16;5.78;;;2.88;;
62724;SDS011;49026;52.600;4.694;2023-04-01T14:59:06;7.78;;;2.95;;
62724;SDS011;49026;52.600;4.694;2023-04-01T15:18:56;4.05;;;2.40;;
62724;SDS011;49026;52.600;4.694;2023-04-01T15:24:46;5.93;;;2.90;;
62724;SDS011;49026;52.600;4.694;2023-04-01T15:27:28;2.42;;;1.27;;
62724;SDS011;49026;52.600;4.694;2023-04-01T15:30:21;2.38;;;2.00;;
62724;SDS011;49026;52.600;4.694;2023-04-01T15:41:45;7.82;;;2.10;;
62724;SDS011;49026;52.600;4.694;2023-04-01T15:59:07;7.38;;;2.95;;
62724;SDS011;49026;52.600;4.694;2023-04-01T16:04:36;7.20;;;2.53;;
62724;SDS011;49026;52.600;4.694;2023-04-01T16:07:17;4.82;;;2.38;;
62724;SDS011;49026;52.600;4.694;2023-04-01T16:12:35;3.20;;;1.88;;
62724;SDS011;49026;52.600;4.694;2023-04-01T16:15:39;6.03;;;2.53;;
62724;SDS011;49026;52.600;4.694;2023-04-01T16:23:49;7.43;;;2.90;;
62724;SDS011;49026;52.600;4.694;2023-04-01T16:26:15;7.43;;;2.80;;
62724;SDS011;49026;52.600;4.694;2023-04-01T16:28:48;6.13;;;2.95;;
62724;SDS011;49026;52.600;4.694;2023-04-01T16:34:08;4.80;;;2.58;;
62724;SDS011;49026;52.600;4.694;2023-04-01T16:39:19;3.17;;;1.90;;
62724;SDS011;49026;52.600;4.694;2023-04-01T16:44:59;7.70;;;2.50;;
62724;SDS011;49026;52.600;4.694;2023-04-01T16:47:45;3.40;;;2.08;;
62724;SDS011;49026;52.600;4.694;2023-04-01T16:50:21;2.83;;;1.60;;
62724;SDS011;49026;52.600;4.694;2023-04-01T16:55:17;4.07;;;1.83;;
62724;SDS011;49026;52.600;4.694;2023-04-01T16:57:50;4.63;;;1.83;;
62724;SDS011;49026;52.600;4.694;2023-04-01T17:00:25;3.35;;;2.28;;
62724;SDS011;49026;52.600;4.694;2023-04-01T17:05:49;6.30;;;2.25;;
62724;SDS011;49026;52.600;4.694;2023-04-01T17:08:42;5.32;;;2.70;;
62724;SDS011;49026;52.600;4.694;2023-04-01T17:14:27;3.28;;;1.67;;
62724;SDS011;49026;52.600;4.694;2023-04-01T17:19:49;6.72;;;2.35;;
62724;SDS011;49026;52.600;4.694;2023-04-01T17:27:57;6.90;;;2.97;;
62724;SDS011;49026;52.600;4.694;2023-04-01T17:41:47;6.22;;;1.90;;
62724;SDS011;49026;52.600;4.694;2023-04-01T17:47:00;8.30;;;3.47;;
62724;SDS011;49026;52.600;4.694;2023-04-01T17:49:35;9.80;;;2.72;;
62724;SDS011;49026;52.600;4.694;2023-04-01T17:57:33;6.85;;;3.03;;
62724;SDS011;49026;52.600;4.694;2023-04-01T18:13:21;7.25;;;3.50;;
62724;SDS011;49026;52.600;4.694;2023-04-01T18:18:35;8.95;;;4.45;;
62724;SDS011;49026;52.600;4.694;2023-04-01T18:24:11;7.88;;;3.17;;
62724;SDS011;49026;52.600;4.694;2023-04-01T18:26:40;8.75;;;4.13;;
62724;SDS011;49026;52.600;4.694;2023-04-01T18:32:12;6.43;;;3.95;;
62724;SDS011;49026;52.600;4.694;2023-04-01T18:34:48;4.28;;;2.88;;
62724;SDS011;49026;52.600;4.694;2023-04-01T18:37:25;6.50;;;3.53;;
62724;SDS011;49026;52.600;4.694;2023-04-01T18:47:55;8.32;;;3.45;;
62724;SDS011;49026;52.600;4.694;2023-04-01T18:56:03;5.50;;;3.25;;
62724;SDS011;49026;52.600;4.694;2023-04-01T18:58:35;9.00;;;3.53;;
62724;SDS011;49026;52.600;4.694;2023-04-01T19:06:57;8.45;;;4.22;;
62724;SDS011;49026;52.600;4.694;2023-04-01T19:09:45;8.93;;;4.32;;
62724;SDS011;49026;52.600;4.694;2023-04-01T19:32:08;7.32;;;4.78;;
62724;SDS011;49026;52.600;4.694;2023-04-01T19:51:06;10.38;;;4.97;;
62724;SDS011;49026;52.600;4.694;2023-04-01T19:56:18;9.15;;;4.60;;
62724;SDS011;49026;52.600;4.694;2023-04-01T20:01:39;10.48;;;5.30;;
62724;SDS011;49026;52.600;4.694;2023-04-01T20:07:17;8.55;;;5.07;;
62724;SDS011;49026;52.600;4.694;2023-04-01T20:18:26;11.70;;;5.18;;
62724;SDS011;49026;52.600;4.694;2023-04-01T20:21:03;15.63;;;4.97;;
62724;SDS011;49026;52.600;4.694;2023-04-01T20:23:42;11.43;;;5.38;;
62724;SDS011;49026;52.600;4.694;2023-04-01T20:26:12;4.88;;;3.20;;
62724;SDS011;49026;52.600;4.694;2023-04-01T20:28:47;11.25;;;4.55;;
62724;SDS011;49026;52.600;4.694;2023-04-01T20:31:42;11.30;;;5.28;;
62724;SDS011;49026;52.600;4.694;2023-04-01T20:45:53;6.55;;;4.32;;
62724;SDS011;49026;52.600;4.694;2023-04-01T20:48:34;11.82;;;5.55;;
62724;SDS011;49026;52.600;4.694;2023-04-01T20:51:21;10.05;;;5.05;;
62724;SDS011;49026;52.600;4.694;2023-04-01T21:10:41;8.95;;;3.88;;
62724;SDS011;49026;52.600;4.694;2023-04-01T21:33:08;7.95;;;4.32;;
62724;SDS011;49026;52.600;4.694;2023-04-01T21:36:25;12.40;;;4.95;;
62724;SDS011;49026;52.600;4.694;2023-04-01T21:47:08;7.80;;;3.83;;
62724;SDS011;49026;52.600;4.694;2023-04-01T21:55:43;7.97;;;4.18;;
62724;SDS011;49026;52.600;4.694;2023-04-01T22:09:37;15.68;;;5.88;;
62724;SDS011;49026;52.600;4.694;2023-04-01T22:12:21;10.65;;;5.47;;
62724;SDS011;49026;52.600;4.694;2023-04-01T22:18:33;10.10;;;4.38;;
62724;SDS011;49026;52.600;4.694;2023-04-01T22:24:00;9.65;;;4.22;;
62724;SDS011;49026;52.600;4.694;2023-04-01T22:26:45;7.70;;;4.10;;
62724;SDS011;49026;52.600;4.694;2023-04-01T22:29:38;11.10;;;5.32;;
62724;SDS011;49026;52.600;4.694;2023-04-01T22:32:16;5.53;;;2.78;;
62724;SDS011;49026;52.600;4.694;2023-04-01T22:34:50;9.60;;;4.13;;
62724;SDS011;49026;52.600;4.694;2023-04-01T22:42:49;13.25;;;5.55;;
62724;SDS011;49026;52.600;4.694;2023-04-01T22:50:40;10.65;;;5.32;;
62724;SDS011;49026;52.600;4.694;2023-04-01T22:53:35;14.18;;;4.43;;
62724;SDS011;49026;52.600;4.694;2023-04-01T22:56:26;10.65;;;5.75;;
62724;SDS011;49026;52.600;4.694;2023-04-01T22:58:59;15.20;;;5.68;;
62724;SDS011;49026;52.600;4.694;2023-04-01T23:01:38;10.67;;;4.73;;
62724;SDS011;49026;52.600;4.694;2023-04-01T23:04:08;10.95;;;5.10;;
62724;SDS011;49026;52.600;4.694;2023-04-01T23:06:42;15.13;;;5.28;;
62724;SDS011;49026;52.600;4.694;2023-04-01T23:09:15;7.93;;;4.72;;
62724;SDS011;49026;52.600;4.694;2023-04-01T23:19:49;13.13;;;4.45;;
62724;SDS011;49026;52.600;4.694;2023-04-01T23:22:34;10.35;;;5.35;;
62724;SDS011;49026;52.600;4.694;2023-04-01T23:33:15;6.85;;;4.00;;
62724;SDS011;49026;52.600;4.694;2023-04-01T23:38:24;9.38;;;4.28;;
62724;SDS011;49026;52.600;4.694;2023-04-01T23:40:51;10.38;;;4.93;;
62724;SDS011;49026;52.600;4.694;2023-04-01T23:43:23;8.32;;;3.97;;
62724;SDS011;49026;52.600;4.694;2023-04-01T23:45:53;11.23;;;5.32;;
62724;SDS011;49026;52.600;4.694;2023-04-01T23:48:30;5.88;;;3.97;;
62724;SDS011;49026;52.600;4.694;2023-04-01T23:51:18;12.10;;;4.35;;
62724;SDS011;49026;52.600;4.694;2023-04-01T23:53:56;7.65;;;3.47;;
62724;SDS011;49026;52.600;4.694;2023-04-01T23:56:35;7.47;;;3.63;;
62724;SDS011;49026;52.600;4.694;2023-04-01T23:59:09;8.57;;;4.65;;
